Terminal Aerodrome Forecast
Issued by NWS

Home | Current Version | Previous Version | Text Only | Print | Product List | Glossary Off
Versions: 1 2 3 4 5 6 7 8 9 10 11 12 13 14 15 16 17 18 19 20 21 22 23 24

709
FTUS45 KGGW 221134
TAFOLF
TAF
KOLF 221134Z 2212/2312 30007KT P6SM SCT110
     FM221800 36014G23KT P6SM BKN090
     FM230100 01011KT P6SM SCT080
     FM230300 36005KT P6SM FEW090=

USA.gov is the U.S. government's official web portal to all federal, state and local government web resources and services.